Portada
METAR-TAF:

METAR-TAF

Aeropuertos :

Fuerteventura, España

Aeropuerto de Fuerteventura

latitud: 28-27N, longitud: 013-52W, altitud: 22 m

Observación

El informe se hizo hace 22 minutos, a las 10:30 UTC
Viento 16 kt del noreste
Temperatura 24°C
Humedad 74%
Presión 1016 hPa
Visibilidad 10 km o más
Escasas nubes a una altura de 2300 ft

METAR: GCFV 181030Z 04016KT 9999 FEW023 24/19 Q1016

Hora: 11:52 (10:52 UTC)

Pronóstico

El informe se hizo hace 2 horas y 52 minutos, a las 08:00 UTC
Pronóstico válido del 18 a las 09 UTC al 19 a las 09 UTC
Viento 18 kt del noreste
Visibilidad 10 km o más
Escasas nubes a una altura de 3000 ft
Probabilidad 30% :
Temporalmente
del 18 a las 09 UTC al 19 a las 09 UTC
Viento 18 kt del noreste con ráfagas de 28 kt

TAF: GCFV 180800Z 1809/1909 05018KT 9999 FEW030 TX25/1814Z TN20/1906Z PROB30 TEMPO 1809/1909 05018G28KT

Observaciones y pronósticos meteorológicos de más de 4000 aeropuertos (mensajes METAR y TAF).

Los puntos amarillos y rojos representan las estaciones disponibles.

Ponga el ratón en el punto deseado para ver el nombre de la estación.

Haga clic para ver las observaciones y los pronósticos meteorológicos.

Para cambiar el mapa : haga clic en los botones verdes con una cruz de color negro para hacer un zoom, en el botón verde con un guión para alejar o en las flechas verdes para mapas adyacentes.


METAR-TAF: